sensor_id;sensor_type;location;lat;lon;timestamp;temperature;humidity
20057;DHT22;10189;49.546;7.906;2023-06-24T00:00:09;13.40;82.00
20057;DHT22;10189;49.546;7.906;2023-06-24T00:02:37;13.30;82.10
20057;DHT22;10189;49.546;7.906;2023-06-24T00:05:04;13.30;82.30
20057;DHT22;10189;49.546;7.906;2023-06-24T00:07:32;13.30;82.50
20057;DHT22;10189;49.546;7.906;2023-06-24T00:10:01;13.20;83.60
20057;DHT22;10189;49.546;7.906;2023-06-24T00:12:29;13.10;83.70
20057;DHT22;10189;49.546;7.906;2023-06-24T00:14:55;13.00;83.90
20057;DHT22;10189;49.546;7.906;2023-06-24T00:17:21;13.00;84.10
20057;DHT22;10189;49.546;7.906;2023-06-24T00:19:47;12.90;84.50
20057;DHT22;10189;49.546;7.906;2023-06-24T00:22:13;12.90;84.60
20057;DHT22;10189;49.546;7.906;2023-06-24T00:24:39;12.90;84.90
20057;DHT22;10189;49.546;7.906;2023-06-24T00:27:05;12.80;85.10
20057;DHT22;10189;49.546;7.906;2023-06-24T00:29:31;12.70;85.40
20057;DHT22;10189;49.546;7.906;2023-06-24T00:31:57;12.70;85.60
20057;DHT22;10189;49.546;7.906;2023-06-24T00:34:23;12.70;85.70
20057;DHT22;10189;49.546;7.906;2023-06-24T00:36:51;12.60;85.80
20057;DHT22;10189;49.546;7.906;2023-06-24T00:39:16;12.60;85.90
20057;DHT22;10189;49.546;7.906;2023-06-24T00:41:42;12.60;86.10
20057;DHT22;10189;49.546;7.906;2023-06-24T00:44:09;12.60;86.00
20057;DHT22;10189;49.546;7.906;2023-06-24T00:46:35;12.50;86.20
20057;DHT22;10189;49.546;7.906;2023-06-24T00:49:01;12.50;86.50
20057;DHT22;10189;49.546;7.906;2023-06-24T00:51:28;12.50;86.50
20057;DHT22;10189;49.546;7.906;2023-06-24T00:53:59;12.50;86.60
20057;DHT22;10189;49.546;7.906;2023-06-24T00:56:30;12.40;86.80
20057;DHT22;10189;49.546;7.906;2023-06-24T00:59:00;12.40;87.00
20057;DHT22;10189;49.546;7.906;2023-06-24T01:01:33;12.30;87.20
20057;DHT22;10189;49.546;7.906;2023-06-24T01:04:02;12.30;87.40
20057;DHT22;10189;49.546;7.906;2023-06-24T01:06:29;12.20;87.50
20057;DHT22;10189;49.546;7.906;2023-06-24T01:08:57;12.20;87.80
20057;DHT22;10189;49.546;7.906;2023-06-24T01:11:29;12.20;87.70
20057;DHT22;10189;49.546;7.906;2023-06-24T01:13:56;12.20;87.70
20057;DHT22;10189;49.546;7.906;2023-06-24T01:19:44;12.20;87.60
20057;DHT22;10189;49.546;7.906;2023-06-24T01:29:31;12.10;88.00
20057;DHT22;10189;49.546;7.906;2023-06-24T01:32:31;12.10;88.40
20057;DHT22;10189;49.546;7.906;2023-06-24T01:35:19;12.10;88.50
20057;DHT22;10189;49.546;7.906;2023-06-24T01:37:50;12.10;88.50
20057;DHT22;10189;49.546;7.906;2023-06-24T01:40:37;12.00;88.50
20057;DHT22;10189;49.546;7.906;2023-06-24T01:43:09;12.00;88.60
20057;DHT22;10189;49.546;7.906;2023-06-24T01:45:46;12.00;88.50
20057;DHT22;10189;49.546;7.906;2023-06-24T01:48:17;12.00;88.70
20057;DHT22;10189;49.546;7.906;2023-06-24T01:51:03;12.00;88.70
20057;DHT22;10189;49.546;7.906;2023-06-24T01:53:39;12.00;88.60
20057;DHT22;10189;49.546;7.906;2023-06-24T01:56:14;12.00;88.80
20057;DHT22;10189;49.546;7.906;2023-06-24T01:58:45;12.00;88.90
20057;DHT22;10189;49.546;7.906;2023-06-24T02:01:12;11.90;89.10
20057;DHT22;10189;49.546;7.906;2023-06-24T02:03:41;11.90;89.20
20057;DHT22;10189;49.546;7.906;2023-06-24T02:06:09;11.80;89.40
20057;DHT22;10189;49.546;7.906;2023-06-24T02:08:36;11.80;89.70
20057;DHT22;10189;49.546;7.906;2023-06-24T02:11:06;11.80;90.10
20057;DHT22;10189;49.546;7.906;2023-06-24T02:13:35;11.70;90.10
20057;DHT22;10189;49.546;7.906;2023-06-24T02:16:06;11.70;90.20
20057;DHT22;10189;49.546;7.906;2023-06-24T02:18:35;11.70;90.30
20057;DHT22;10189;49.546;7.906;2023-06-24T02:21:04;11.70;90.40
20057;DHT22;10189;49.546;7.906;2023-06-24T02:23:31;11.70;90.40
20057;DHT22;10189;49.546;7.906;2023-06-24T02:26:04;11.70;90.50
20057;DHT22;10189;49.546;7.906;2023-06-24T02:28:33;11.70;90.50
20057;DHT22;10189;49.546;7.906;2023-06-24T02:31:00;11.70;90.50
20057;DHT22;10189;49.546;7.906;2023-06-24T02:33:27;11.60;90.50
20057;DHT22;10189;49.546;7.906;2023-06-24T02:35:53;11.70;90.70
20057;DHT22;10189;49.546;7.906;2023-06-24T02:38:19;11.70;90.40
20057;DHT22;10189;49.546;7.906;2023-06-24T02:40:47;11.70;90.60
20057;DHT22;10189;49.546;7.906;2023-06-24T02:43:13;11.70;90.80
20057;DHT22;10189;49.546;7.906;2023-06-24T02:45:40;11.70;90.90
20057;DHT22;10189;49.546;7.906;2023-06-24T02:48:08;11.60;91.00
20057;DHT22;10189;49.546;7.906;2023-06-24T02:50:35;11.60;91.50
20057;DHT22;10189;49.546;7.906;2023-06-24T02:53:03;11.50;91.70
20057;DHT22;10189;49.546;7.906;2023-06-24T02:55:34;11.40;91.90
20057;DHT22;10189;49.546;7.906;2023-06-24T02:58:03;11.40;92.10
20057;DHT22;10189;49.546;7.906;2023-06-24T03:00:52;11.40;92.20
20057;DHT22;10189;49.546;7.906;2023-06-24T03:03:28;11.30;92.60
20057;DHT22;10189;49.546;7.906;2023-06-24T03:05:56;11.30;92.80
20057;DHT22;10189;49.546;7.906;2023-06-24T03:08:24;11.20;92.90
20057;DHT22;10189;49.546;7.906;2023-06-24T03:10:54;11.20;92.80
20057;DHT22;10189;49.546;7.906;2023-06-24T03:13:23;11.20;92.90
20057;DHT22;10189;49.546;7.906;2023-06-24T03:15:56;11.20;92.90
20057;DHT22;10189;49.546;7.906;2023-06-24T03:18:22;11.20;93.00
20057;DHT22;10189;49.546;7.906;2023-06-24T03:20:48;11.20;93.20
20057;DHT22;10189;49.546;7.906;2023-06-24T03:23:18;11.20;93.10
20057;DHT22;10189;49.546;7.906;2023-06-24T03:25:44;11.20;93.10
20057;DHT22;10189;49.546;7.906;2023-06-24T03:28:10;11.30;93.10
20057;DHT22;10189;49.546;7.906;2023-06-24T03:30:43;11.20;93.30
20057;DHT22;10189;49.546;7.906;2023-06-24T03:33:11;11.20;93.10
20057;DHT22;10189;49.546;7.906;2023-06-24T03:35:43;11.30;92.90
20057;DHT22;10189;49.546;7.906;2023-06-24T03:38:12;11.30;92.80
20057;DHT22;10189;49.546;7.906;2023-06-24T03:40:38;11.40;92.80
20057;DHT22;10189;49.546;7.906;2023-06-24T03:43:04;11.50;93.00
20057;DHT22;10189;49.546;7.906;2023-06-24T03:45:30;11.40;92.70
20057;DHT22;10189;49.546;7.906;2023-06-24T03:47:56;11.50;92.60
20057;DHT22;10189;49.546;7.906;2023-06-24T03:50:22;11.50;92.10
20057;DHT22;10189;49.546;7.906;2023-06-24T03:52:48;11.50;91.80
20057;DHT22;10189;49.546;7.906;2023-06-24T03:55:14;11.60;91.70
20057;DHT22;10189;49.546;7.906;2023-06-24T03:57:41;11.60;91.50
20057;DHT22;10189;49.546;7.906;2023-06-24T04:00:08;11.70;91.30
20057;DHT22;10189;49.546;7.906;2023-06-24T04:02:46;11.70;91.30
20057;DHT22;10189;49.546;7.906;2023-06-24T04:05:12;11.80;91.00
20057;DHT22;10189;49.546;7.906;2023-06-24T04:07:38;11.90;90.70
20057;DHT22;10189;49.546;7.906;2023-06-24T04:10:05;12.00;90.60
20057;DHT22;10189;49.546;7.906;2023-06-24T04:12:36;12.00;90.70
20057;DHT22;10189;49.546;7.906;2023-06-24T04:15:03;12.10;90.40
20057;DHT22;10189;49.546;7.906;2023-06-24T04:17:29;12.20;90.00
20057;DHT22;10189;49.546;7.906;2023-06-24T04:19:58;12.30;89.80
20057;DHT22;10189;49.546;7.906;2023-06-24T04:22:25;12.40;89.50
20057;DHT22;10189;49.546;7.906;2023-06-24T04:24:56;12.40;89.50
20057;DHT22;10189;49.546;7.906;2023-06-24T04:27:23;12.50;89.60
20057;DHT22;10189;49.546;7.906;2023-06-24T04:29:49;12.70;89.50
20057;DHT22;10189;49.546;7.906;2023-06-24T04:32:15;12.90;88.20
20057;DHT22;10189;49.546;7.906;2023-06-24T04:34:40;13.10;87.80
20057;DHT22;10189;49.546;7.906;2023-06-24T04:37:07;13.20;87.20
20057;DHT22;10189;49.546;7.906;2023-06-24T04:39:32;13.40;86.60
20057;DHT22;10189;49.546;7.906;2023-06-24T04:41:58;13.60;85.30
20057;DHT22;10189;49.546;7.906;2023-06-24T04:44:24;13.60;85.00
20057;DHT22;10189;49.546;7.906;2023-06-24T04:46:50;13.70;84.60
20057;DHT22;10189;49.546;7.906;2023-06-24T04:49:18;13.80;84.60
20057;DHT22;10189;49.546;7.906;2023-06-24T04:51:44;13.90;84.30
20057;DHT22;10189;49.546;7.906;2023-06-24T04:54:10;14.00;84.00
20057;DHT22;10189;49.546;7.906;2023-06-24T04:56:38;14.20;83.90
20057;DHT22;10189;49.546;7.906;2023-06-24T04:59:04;14.40;83.10
20057;DHT22;10189;49.546;7.906;2023-06-24T05:01:30;14.60;82.90
20057;DHT22;10189;49.546;7.906;2023-06-24T05:03:56;14.70;82.30
20057;DHT22;10189;49.546;7.906;2023-06-24T05:06:22;14.90;81.60
20057;DHT22;10189;49.546;7.906;2023-06-24T05:08:48;15.20;81.00
20057;DHT22;10189;49.546;7.906;2023-06-24T05:11:14;15.40;79.70
20057;DHT22;10189;49.546;7.906;2023-06-24T05:13:40;15.60;78.80
20057;DHT22;10189;49.546;7.906;2023-06-24T05:16:06;15.70;78.60
20057;DHT22;10189;49.546;7.906;2023-06-24T05:18:32;15.80;78.10
20057;DHT22;10189;49.546;7.906;2023-06-24T05:20:58;16.00;77.80
20057;DHT22;10189;49.546;7.906;2023-06-24T05:23:25;16.20;77.50
20057;DHT22;10189;49.546;7.906;2023-06-24T05:25:51;16.40;76.30
20057;DHT22;10189;49.546;7.906;2023-06-24T05:28:16;16.50;75.90
20057;DHT22;10189;49.546;7.906;2023-06-24T05:30:44;16.60;75.80
20057;DHT22;10189;49.546;7.906;2023-06-24T05:33:11;16.70;75.10
20057;DHT22;10189;49.546;7.906;2023-06-24T05:35:37;17.00;74.20
20057;DHT22;10189;49.546;7.906;2023-06-24T05:38:06;17.20;73.60
20057;DHT22;10189;49.546;7.906;2023-06-24T05:40:32;17.30;72.90
20057;DHT22;10189;49.546;7.906;2023-06-24T05:42:58;17.20;72.90
20057;DHT22;10189;49.546;7.906;2023-06-24T05:45:24;17.20;73.60
20057;DHT22;10189;49.546;7.906;2023-06-24T05:47:50;17.30;74.30
20057;DHT22;10189;49.546;7.906;2023-06-24T05:50:16;17.40;75.10
20057;DHT22;10189;49.546;7.906;2023-06-24T05:52:42;17.50;75.50
20057;DHT22;10189;49.546;7.906;2023-06-24T05:55:08;17.40;75.50
20057;DHT22;10189;49.546;7.906;2023-06-24T05:57:34;17.50;75.60
20057;DHT22;10189;49.546;7.906;2023-06-24T06:00:00;17.40;76.10
20057;DHT22;10189;49.546;7.906;2023-06-24T06:02:26;17.50;75.10
20057;DHT22;10189;49.546;7.906;2023-06-24T06:04:52;17.50;75.30
20057;DHT22;10189;49.546;7.906;2023-06-24T06:07:18;17.50;74.80
20057;DHT22;10189;49.546;7.906;2023-06-24T06:09:44;17.60;75.50
20057;DHT22;10189;49.546;7.906;2023-06-24T06:12:10;17.80;75.90
20057;DHT22;10189;49.546;7.906;2023-06-24T06:14:36;17.90;73.60
20057;DHT22;10189;49.546;7.906;2023-06-24T06:17:02;18.00;73.60
20057;DHT22;10189;49.546;7.906;2023-06-24T06:19:28;18.20;75.70
20057;DHT22;10189;49.546;7.906;2023-06-24T06:21:54;18.50;73.50
20057;DHT22;10189;49.546;7.906;2023-06-24T06:24:20;18.60;71.80
20057;DHT22;10189;49.546;7.906;2023-06-24T06:26:45;18.90;71.30
20057;DHT22;10189;49.546;7.906;2023-06-24T06:29:12;19.10;70.30
20057;DHT22;10189;49.546;7.906;2023-06-24T06:31:37;19.30;71.20
20057;DHT22;10189;49.546;7.906;2023-06-24T06:34:03;19.60;70.50
20057;DHT22;10189;49.546;7.906;2023-06-24T06:36:29;19.90;68.90
20057;DHT22;10189;49.546;7.906;2023-06-24T06:38:55;20.10;67.80
20057;DHT22;10189;49.546;7.906;2023-06-24T06:41:21;20.20;67.00
20057;DHT22;10189;49.546;7.906;2023-06-24T06:43:53;20.20;68.10
20057;DHT22;10189;49.546;7.906;2023-06-24T06:46:20;20.30;67.60
20057;DHT22;10189;49.546;7.906;2023-06-24T06:48:46;20.40;66.60
20057;DHT22;10189;49.546;7.906;2023-06-24T06:51:12;20.50;67.60
20057;DHT22;10189;49.546;7.906;2023-06-24T06:53:38;20.60;65.90
20057;DHT22;10189;49.546;7.906;2023-06-24T06:56:04;20.60;67.80
20057;DHT22;10189;49.546;7.906;2023-06-24T06:58:30;20.80;66.30
20057;DHT22;10189;49.546;7.906;2023-06-24T07:00:56;20.90;65.20
20057;DHT22;10189;49.546;7.906;2023-06-24T07:03:27;21.10;64.90
20057;DHT22;10189;49.546;7.906;2023-06-24T07:05:53;21.30;63.70
20057;DHT22;10189;49.546;7.906;2023-06-24T07:08:19;21.50;64.10
20057;DHT22;10189;49.546;7.906;2023-06-24T07:10:45;21.70;64.80
20057;DHT22;10189;49.546;7.906;2023-06-24T07:13:11;21.80;62.60
20057;DHT22;10189;49.546;7.906;2023-06-24T07:15:37;21.90;61.90
20057;DHT22;10189;49.546;7.906;2023-06-24T07:18:02;21.90;61.10
20057;DHT22;10189;49.546;7.906;2023-06-24T07:20:28;22.10;61.10
20057;DHT22;10189;49.546;7.906;2023-06-24T07:22:54;22.50;60.70
20057;DHT22;10189;49.546;7.906;2023-06-24T07:25:20;22.80;61.20
20057;DHT22;10189;49.546;7.906;2023-06-24T07:27:46;23.00;58.30
20057;DHT22;10189;49.546;7.906;2023-06-24T07:30:12;23.20;57.30
20057;DHT22;10189;49.546;7.906;2023-06-24T07:32:37;23.40;56.10
20057;DHT22;10189;49.546;7.906;2023-06-24T07:35:04;23.50;56.90
20057;DHT22;10189;49.546;7.906;2023-06-24T07:37:30;23.80;56.10
20057;DHT22;10189;49.546;7.906;2023-06-24T07:39:56;23.90;53.90
20057;DHT22;10189;49.546;7.906;2023-06-24T07:42:21;24.00;52.90
20057;DHT22;10189;49.546;7.906;2023-06-24T07:44:48;24.00;53.00
20057;DHT22;10189;49.546;7.906;2023-06-24T07:47:16;24.10;56.30
20057;DHT22;10189;49.546;7.906;2023-06-24T07:49:42;24.30;53.40
20057;DHT22;10189;49.546;7.906;2023-06-24T07:52:08;24.40;51.20
20057;DHT22;10189;49.546;7.906;2023-06-24T07:54:34;24.30;52.90
20057;DHT22;10189;49.546;7.906;2023-06-24T07:57:01;24.30;52.20
20057;DHT22;10189;49.546;7.906;2023-06-24T07:59:27;24.10;52.90
20057;DHT22;10189;49.546;7.906;2023-06-24T08:01:53;24.20;53.30
20057;DHT22;10189;49.546;7.906;2023-06-24T08:04:19;24.40;52.00
20057;DHT22;10189;49.546;7.906;2023-06-24T08:06:45;24.50;54.00
20057;DHT22;10189;49.546;7.906;2023-06-24T08:09:11;24.50;51.10
20057;DHT22;10189;49.546;7.906;2023-06-24T08:11:37;24.70;52.70
20057;DHT22;10189;49.546;7.906;2023-06-24T08:14:03;24.80;48.70
20057;DHT22;10189;49.546;7.906;2023-06-24T08:16:29;24.70;48.80
20057;DHT22;10189;49.546;7.906;2023-06-24T08:18:55;24.60;48.80
20057;DHT22;10189;49.546;7.906;2023-06-24T08:21:21;24.60;50.70
20057;DHT22;10189;49.546;7.906;2023-06-24T08:23:47;24.70;50.20
20057;DHT22;10189;49.546;7.906;2023-06-24T08:26:16;25.00;49.90
20057;DHT22;10189;49.546;7.906;2023-06-24T08:28:42;25.10;51.10
20057;DHT22;10189;49.546;7.906;2023-06-24T08:31:07;25.00;48.60
20057;DHT22;10189;49.546;7.906;2023-06-24T08:33:33;24.90;49.90
20057;DHT22;10189;49.546;7.906;2023-06-24T08:35:59;24.70;49.40
20057;DHT22;10189;49.546;7.906;2023-06-24T08:38:25;24.50;51.60
20057;DHT22;10189;49.546;7.906;2023-06-24T08:40:51;24.40;50.80
20057;DHT22;10189;49.546;7.906;2023-06-24T08:43:17;24.10;51.50
20057;DHT22;10189;49.546;7.906;2023-06-24T08:45:43;23.90;53.30
20057;DHT22;10189;49.546;7.906;2023-06-24T08:48:11;23.90;54.00
20057;DHT22;10189;49.546;7.906;2023-06-24T08:50:44;23.90;53.00
20057;DHT22;10189;49.546;7.906;2023-06-24T08:53:12;24.30;54.90
20057;DHT22;10189;49.546;7.906;2023-06-24T08:55:43;24.60;52.30
20057;DHT22;10189;49.546;7.906;2023-06-24T08:58:10;24.60;51.50
20057;DHT22;10189;49.546;7.906;2023-06-24T09:00:36;24.50;51.90
20057;DHT22;10189;49.546;7.906;2023-06-24T09:03:02;24.40;50.40
20057;DHT22;10189;49.546;7.906;2023-06-24T09:05:28;24.40;51.10
20057;DHT22;10189;49.546;7.906;2023-06-24T09:07:54;24.40;51.60
20057;DHT22;10189;49.546;7.906;2023-06-24T09:10:36;24.70;50.10
20057;DHT22;10189;49.546;7.906;2023-06-24T09:13:04;24.80;50.70
20057;DHT22;10189;49.546;7.906;2023-06-24T09:15:35;25.10;50.00
20057;DHT22;10189;49.546;7.906;2023-06-24T09:18:04;25.50;49.70
20057;DHT22;10189;49.546;7.906;2023-06-24T09:20:31;25.60;49.30
20057;DHT22;10189;49.546;7.906;2023-06-24T09:23:02;26.00;48.70
20057;DHT22;10189;49.546;7.906;2023-06-24T09:25:29;26.40;46.80
20057;DHT22;10189;49.546;7.906;2023-06-24T09:28:02;26.60;46.50
20057;DHT22;10189;49.546;7.906;2023-06-24T09:30:29;27.00;44.40
20057;DHT22;10189;49.546;7.906;2023-06-24T09:32:55;26.90;44.10
20057;DHT22;10189;49.546;7.906;2023-06-24T09:35:23;26.40;43.50
20057;DHT22;10189;49.546;7.906;2023-06-24T09:37:56;26.10;44.60
20057;DHT22;10189;49.546;7.906;2023-06-24T09:40:25;25.90;44.90
20057;DHT22;10189;49.546;7.906;2023-06-24T09:42:52;26.10;44.70
20057;DHT22;10189;49.546;7.906;2023-06-24T09:45:23;26.30;42.50
20057;DHT22;10189;49.546;7.906;2023-06-24T09:47:50;26.40;43.00
20057;DHT22;10189;49.546;7.906;2023-06-24T09:50:16;26.80;44.20
20057;DHT22;10189;49.546;7.906;2023-06-24T09:52:44;27.00;42.70
20057;DHT22;10189;49.546;7.906;2023-06-24T09:55:16;26.90;42.20
20057;DHT22;10189;49.546;7.906;2023-06-24T09:57:50;26.60;44.00
20057;DHT22;10189;49.546;7.906;2023-06-24T10:00:19;26.40;44.00
20057;DHT22;10189;49.546;7.906;2023-06-24T10:02:47;26.70;44.60
20057;DHT22;10189;49.546;7.906;2023-06-24T10:05:14;27.00;45.60
20057;DHT22;10189;49.546;7.906;2023-06-24T10:07:40;27.10;45.40
20057;DHT22;10189;49.546;7.906;2023-06-24T10:10:08;27.50;44.90
20057;DHT22;10189;49.546;7.906;2023-06-24T10:12:37;27.70;45.30
20057;DHT22;10189;49.546;7.906;2023-06-24T10:15:05;27.90;42.30
20057;DHT22;10189;49.546;7.906;2023-06-24T10:17:31;27.60;40.80
20057;DHT22;10189;49.546;7.906;2023-06-24T10:19:57;27.60;43.40
20057;DHT22;10189;49.546;7.906;2023-06-24T10:22:24;27.80;43.10
20057;DHT22;10189;49.546;7.906;2023-06-24T10:24:51;27.80;41.30
20057;DHT22;10189;49.546;7.906;2023-06-24T10:27:21;27.80;41.10
20057;DHT22;10189;49.546;7.906;2023-06-24T10:29:49;28.10;41.50
20057;DHT22;10189;49.546;7.906;2023-06-24T10:32:21;28.10;41.00
20057;DHT22;10189;49.546;7.906;2023-06-24T10:34:56;27.70;41.60
20057;DHT22;10189;49.546;7.906;2023-06-24T10:37:24;27.20;41.20
20057;DHT22;10189;49.546;7.906;2023-06-24T10:39:55;26.80;41.60
20057;DHT22;10189;49.546;7.906;2023-06-24T10:47:35;26.00;42.50
20057;DHT22;10189;49.546;7.906;2023-06-24T10:50:13;25.90;44.10
20057;DHT22;10189;49.546;7.906;2023-06-24T10:52:46;26.10;44.80
20057;DHT22;10189;49.546;7.906;2023-06-24T10:55:18;26.10;44.40
20057;DHT22;10189;49.546;7.906;2023-06-24T10:57:45;26.20;45.30
20057;DHT22;10189;49.546;7.906;2023-06-24T11:00:12;26.50;42.40
20057;DHT22;10189;49.546;7.906;2023-06-24T11:02:39;26.20;42.50
20057;DHT22;10189;49.546;7.906;2023-06-24T11:05:06;25.80;43.30
20057;DHT22;10189;49.546;7.906;2023-06-24T11:07:34;25.60;43.10
20057;DHT22;10189;49.546;7.906;2023-06-24T11:12:36;25.90;46.60
20057;DHT22;10189;49.546;7.906;2023-06-24T11:15:07;26.50;43.90
20057;DHT22;10189;49.546;7.906;2023-06-24T11:17:37;27.00;43.90
20057;DHT22;10189;49.546;7.906;2023-06-24T11:20:09;27.50;42.10
20057;DHT22;10189;49.546;7.906;2023-06-24T11:22:37;27.50;39.70
20057;DHT22;10189;49.546;7.906;2023-06-24T11:25:05;27.70;41.20
20057;DHT22;10189;49.546;7.906;2023-06-24T11:27:32;27.70;40.90
20057;DHT22;10189;49.546;7.906;2023-06-24T11:29:59;27.80;40.80
20057;DHT22;10189;49.546;7.906;2023-06-24T11:32:44;28.10;41.70
20057;DHT22;10189;49.546;7.906;2023-06-24T11:35:14;28.10;41.10
20057;DHT22;10189;49.546;7.906;2023-06-24T11:37:44;28.10;40.60
20057;DHT22;10189;49.546;7.906;2023-06-24T11:40:13;27.80;40.40
20057;DHT22;10189;49.546;7.906;2023-06-24T11:42:42;27.30;40.50
20057;DHT22;10189;49.546;7.906;2023-06-24T11:45:11;26.90;41.50
20057;DHT22;10189;49.546;7.906;2023-06-24T11:47:39;26.70;42.40
20057;DHT22;10189;49.546;7.906;2023-06-24T11:50:07;26.70;42.20
20057;DHT22;10189;49.546;7.906;2023-06-24T11:52:46;27.00;42.20
20057;DHT22;10189;49.546;7.906;2023-06-24T11:55:19;27.50;40.90
20057;DHT22;10189;49.546;7.906;2023-06-24T12:00:20;28.40;42.40
20057;DHT22;10189;49.546;7.906;2023-06-24T12:02:49;29.00;39.30
20057;DHT22;10189;49.546;7.906;2023-06-24T12:05:24;28.80;38.90
20057;DHT22;10189;49.546;7.906;2023-06-24T12:07:56;28.90;38.50
20057;DHT22;10189;49.546;7.906;2023-06-24T12:10:26;28.70;38.00
20057;DHT22;10189;49.546;7.906;2023-06-24T12:12:55;28.20;38.60
20057;DHT22;10189;49.546;7.906;2023-06-24T12:15:22;27.50;39.50
20057;DHT22;10189;49.546;7.906;2023-06-24T12:17:48;27.20;39.60
20057;DHT22;10189;49.546;7.906;2023-06-24T12:20:14;27.10;40.10
20057;DHT22;10189;49.546;7.906;2023-06-24T12:22:41;26.80;40.10
20057;DHT22;10189;49.546;7.906;2023-06-24T12:25:08;26.90;41.30
20057;DHT22;10189;49.546;7.906;2023-06-24T12:27:35;27.00;40.70
20057;DHT22;10189;49.546;7.906;2023-06-24T12:30:02;26.90;40.80
20057;DHT22;10189;49.546;7.906;2023-06-24T12:32:28;26.70;41.30
20057;DHT22;10189;49.546;7.906;2023-06-24T12:34:54;26.70;41.00
20057;DHT22;10189;49.546;7.906;2023-06-24T12:37:20;27.10;42.60
20057;DHT22;10189;49.546;7.906;2023-06-24T12:39:45;27.60;40.80
20057;DHT22;10189;49.546;7.906;2023-06-24T12:42:11;27.90;38.50
20057;DHT22;10189;49.546;7.906;2023-06-24T12:44:38;28.00;38.70
20057;DHT22;10189;49.546;7.906;2023-06-24T12:47:04;28.00;40.30
20057;DHT22;10189;49.546;7.906;2023-06-24T12:49:30;28.00;39.70
20057;DHT22;10189;49.546;7.906;2023-06-24T12:51:56;27.70;39.90
20057;DHT22;10189;49.546;7.906;2023-06-24T12:54:22;27.30;39.40
20057;DHT22;10189;49.546;7.906;2023-06-24T12:56:48;27.00;39.40
20057;DHT22;10189;49.546;7.906;2023-06-24T12:59:13;27.10;39.50
20057;DHT22;10189;49.546;7.906;2023-06-24T13:01:39;27.20;40.90
20057;DHT22;10189;49.546;7.906;2023-06-24T13:04:14;27.80;39.30
20057;DHT22;10189;49.546;7.906;2023-06-24T13:06:40;28.50;40.50
20057;DHT22;10189;49.546;7.906;2023-06-24T13:09:06;29.10;39.30
20057;DHT22;10189;49.546;7.906;2023-06-24T13:11:32;29.40;37.00
20057;DHT22;10189;49.546;7.906;2023-06-24T13:13:58;29.40;37.70
20057;DHT22;10189;49.546;7.906;2023-06-24T13:16:24;29.40;37.60
20057;DHT22;10189;49.546;7.906;2023-06-24T13:18:49;29.50;37.20
20057;DHT22;10189;49.546;7.906;2023-06-24T13:21:15;29.50;36.40
20057;DHT22;10189;49.546;7.906;2023-06-24T13:23:41;29.00;36.70
20057;DHT22;10189;49.546;7.906;2023-06-24T13:26:07;28.70;36.90
20057;DHT22;10189;49.546;7.906;2023-06-24T13:28:33;28.40;37.20
20057;DHT22;10189;49.546;7.906;2023-06-24T13:30:59;28.10;37.80
20057;DHT22;10189;49.546;7.906;2023-06-24T13:33:25;28.20;38.00
20057;DHT22;10189;49.546;7.906;2023-06-24T13:35:52;28.40;38.30
20057;DHT22;10189;49.546;7.906;2023-06-24T13:38:18;28.30;37.40
20057;DHT22;10189;49.546;7.906;2023-06-24T13:40:44;28.30;37.50
20057;DHT22;10189;49.546;7.906;2023-06-24T13:43:10;28.30;37.60
20057;DHT22;10189;49.546;7.906;2023-06-24T13:45:35;28.50;37.60
20057;DHT22;10189;49.546;7.906;2023-06-24T13:48:01;28.90;36.60
20057;DHT22;10189;49.546;7.906;2023-06-24T13:50:27;29.00;36.10
20057;DHT22;10189;49.546;7.906;2023-06-24T13:52:54;29.10;35.90
20057;DHT22;10189;49.546;7.906;2023-06-24T13:55:21;29.00;36.00
20057;DHT22;10189;49.546;7.906;2023-06-24T13:57:47;29.20;36.60
20057;DHT22;10189;49.546;7.906;2023-06-24T14:00:13;29.10;36.20
20057;DHT22;10189;49.546;7.906;2023-06-24T14:02:41;28.80;37.00
20057;DHT22;10189;49.546;7.906;2023-06-24T14:05:07;28.70;37.40
20057;DHT22;10189;49.546;7.906;2023-06-24T14:07:34;28.30;38.00
20057;DHT22;10189;49.546;7.906;2023-06-24T14:10:00;28.20;36.90
20057;DHT22;10189;49.546;7.906;2023-06-24T14:12:26;28.20;37.60
20057;DHT22;10189;49.546;7.906;2023-06-24T14:14:52;28.10;37.80
20057;DHT22;10189;49.546;7.906;2023-06-24T14:17:18;28.50;38.60
20057;DHT22;10189;49.546;7.906;2023-06-24T14:19:43;28.70;36.70
20057;DHT22;10189;49.546;7.906;2023-06-24T14:22:09;28.80;36.50
20057;DHT22;10189;49.546;7.906;2023-06-24T14:24:36;28.90;37.00
20057;DHT22;10189;49.546;7.906;2023-06-24T14:27:05;28.90;37.70
20057;DHT22;10189;49.546;7.906;2023-06-24T14:29:31;29.00;37.10
20057;DHT22;10189;49.546;7.906;2023-06-24T14:31:57;29.10;36.60
20057;DHT22;10189;49.546;7.906;2023-06-24T14:34:23;28.90;36.70
20057;DHT22;10189;49.546;7.906;2023-06-24T14:36:49;28.70;36.20
20057;DHT22;10189;49.546;7.906;2023-06-24T14:39:15;28.40;37.00
20057;DHT22;10189;49.546;7.906;2023-06-24T14:41:42;27.90;37.10
20057;DHT22;10189;49.546;7.906;2023-06-24T14:44:09;27.60;38.00
20057;DHT22;10189;49.546;7.906;2023-06-24T14:46:35;27.10;38.40
20057;DHT22;10189;49.546;7.906;2023-06-24T14:49:01;27.00;38.60
20057;DHT22;10189;49.546;7.906;2023-06-24T14:51:27;27.10;39.70
20057;DHT22;10189;49.546;7.906;2023-06-24T14:53:53;27.40;39.40
20057;DHT22;10189;49.546;7.906;2023-06-24T14:56:19;27.60;37.80
20057;DHT22;10189;49.546;7.906;2023-06-24T14:58:44;27.80;37.00
20057;DHT22;10189;49.546;7.906;2023-06-24T15:01:10;27.90;37.50
20057;DHT22;10189;49.546;7.906;2023-06-24T15:03:36;27.80;36.20
20057;DHT22;10189;49.546;7.906;2023-06-24T15:06:02;27.70;36.10
20057;DHT22;10189;49.546;7.906;2023-06-24T15:08:28;27.90;36.30
20057;DHT22;10189;49.546;7.906;2023-06-24T15:10:54;28.10;37.60
20057;DHT22;10189;49.546;7.906;2023-06-24T15:13:20;28.30;37.80
20057;DHT22;10189;49.546;7.906;2023-06-24T15:15:46;28.30;35.70
20057;DHT22;10189;49.546;7.906;2023-06-24T15:18:12;28.20;36.00
20057;DHT22;10189;49.546;7.906;2023-06-24T15:20:40;28.00;36.50
20057;DHT22;10189;49.546;7.906;2023-06-24T15:23:06;28.00;37.20
20057;DHT22;10189;49.546;7.906;2023-06-24T15:25:31;28.20;37.10
20057;DHT22;10189;49.546;7.906;2023-06-24T15:27:58;28.20;38.00
20057;DHT22;10189;49.546;7.906;2023-06-24T15:30:24;28.20;37.70
20057;DHT22;10189;49.546;7.906;2023-06-24T15:32:52;28.30;36.40
20057;DHT22;10189;49.546;7.906;2023-06-24T15:35:17;28.30;36.60
20057;DHT22;10189;49.546;7.906;2023-06-24T15:37:43;28.20;37.90
20057;DHT22;10189;49.546;7.906;2023-06-24T15:40:09;28.20;37.10
20057;DHT22;10189;49.546;7.906;2023-06-24T15:42:35;28.10;36.50
20057;DHT22;10189;49.546;7.906;2023-06-24T15:45:04;28.00;37.10
20057;DHT22;10189;49.546;7.906;2023-06-24T15:47:30;27.90;36.10
20057;DHT22;10189;49.546;7.906;2023-06-24T15:49:56;28.10;36.40
20057;DHT22;10189;49.546;7.906;2023-06-24T15:52:23;28.50;36.00